KSLE

McNary Field Airport

Salem, Oregon, USA
KSLE 171131Z 1712/1812 VRB03KT P6SM SCT250 FM171400 36003KT P6SM FEW015 FM171800 36006KT P6SM SCT200 FM172300 34010KT P6SM SCT200 FM180800 VRB03KT P6SM SKC
Issued Valid From Valid To
Aug-17 @ 11:31 UTC
(3 hours ago)
Aug-17 @ 12:00 UTC
(3 hours ago)
Aug-18 @ 12:00 UTC
(in 21 hours)
Expired Click to View Aug-17 @ 12:00 to Aug-17 @ 14:00
KSLE 171131Z 1712/1812 VRB03KT P6SM SCT250
Wind Visibility Clouds
Variable at 3 knots Greater than 6 miles
  • Scattered at 25,000' AGL
From Aug-17 @ 14:00 to Aug-17 @ 18:00
FM171400 36003KT P6SM FEW015
Wind Visibility Clouds
360° at 3 knots Greater than 6 miles
  • Few at 1,500' AGL
From Aug-17 @ 18:00 to Aug-17 @ 23:00
FM171800 36006KT P6SM SCT200
Wind Visibility Clouds
360° at 6 knots Greater than 6 miles
  • Scattered at 20,000' AGL
From Aug-17 @ 23:00 to Aug-18 @ 08:00
FM172300 34010KT P6SM SCT200
Wind Visibility Clouds
340° at 10 knots Greater than 6 miles
  • Scattered at 20,000' AGL
From Aug-18 @ 08:00 to Aug-18 @ 12:00
FM180800 VRB03KT P6SM SKC
Wind Visibility Clouds
Variable at 3 knots Greater than 6 miles
  • Clear skies
KSLE 171131Z 1712/1812 VRB03KT P6SM SCT250 FM171400 36003KT P6SM FEW015 FM171800 36006KT P6SM SCT200 FM172300 34010KT P6SM SCT200 FM180800 VRB03KT P6SM SKC
Issued Aug-17 @ 11:31 UTC
(3 hours ago)
Valid From Aug-17 @ 12:00 UTC
(3 hours ago)
Valid To Aug-18 @ 12:00 UTC
(in 21 hours)
Aug-17 @ 12:00 - Aug-17 @ 14:00
Wind Visibility
Variable at 3 knots Greater than 6 miles
Clouds
  • Scattered at 25,000' AGL
From Aug-17 @ 14:00 - Aug-17 @ 18:00
Wind Visibility
360° at 3 knots Greater than 6 miles
Clouds
  • Few at 1,500' AGL
From Aug-17 @ 18:00 - Aug-17 @ 23:00
Wind Visibility
360° at 6 knots Greater than 6 miles
Clouds
  • Scattered at 20,000' AGL
From Aug-17 @ 23:00 - Aug-18 @ 08:00
Wind Visibility
340° at 10 knots Greater than 6 miles
Clouds
  • Scattered at 20,000' AGL
From Aug-18 @ 08:00 - Aug-18 @ 12:00
Wind Visibility
Variable at 3 knots Greater than 6 miles
Clouds
  • Clear skies